sensor_id;sensor_type;location;lat;lon;timestamp;P1;durP1;ratioP1;P2;durP2;ratioP2
12792;SDS011;6460;42.684;23.260;2024-03-25T00:18:32;0.40;;;0.40;;
12792;SDS011;6460;42.684;23.260;2024-03-25T00:21:00;0.60;;;0.40;;
12792;SDS011;6460;42.684;23.260;2024-03-25T00:23:27;1.30;;;0.50;;
12792;SDS011;6460;42.684;23.260;2024-03-25T00:25:55;0.57;;;0.57;;
12792;SDS011;6460;42.684;23.260;2024-03-25T00:28:22;0.40;;;0.40;;
12792;SDS011;6460;42.684;23.260;2024-03-25T00:30:50;0.33;;;0.33;;
12792;SDS011;6460;42.684;23.260;2024-03-25T00:33:17;0.40;;;0.40;;
12792;SDS011;6460;42.684;23.260;2024-03-25T00:35:47;0.60;;;0.47;;
12792;SDS011;6460;42.684;23.260;2024-03-25T00:38:15;0.47;;;0.47;;
12792;SDS011;6460;42.684;23.260;2024-03-25T00:40:43;0.40;;;0.40;;
12792;SDS011;6460;42.684;23.260;2024-03-25T00:43:10;1.23;;;0.40;;
12792;SDS011;6460;42.684;23.260;2024-03-25T00:45:38;0.87;;;0.60;;
12792;SDS011;6460;42.684;23.260;2024-03-25T00:48:07;0.40;;;0.30;;
12792;SDS011;6460;42.684;23.260;2024-03-25T00:50:35;0.40;;;0.40;;
12792;SDS011;6460;42.684;23.260;2024-03-25T00:53:04;0.50;;;0.50;;
12792;SDS011;6460;42.684;23.260;2024-03-25T01:11:05;0.60;;;0.60;;
12792;SDS011;6460;42.684;23.260;2024-03-25T01:13:35;0.73;;;0.50;;
12792;SDS011;6460;42.684;23.260;2024-03-25T01:16:03;1.67;;;0.30;;
12792;SDS011;6460;42.684;23.260;2024-03-25T01:18:31;0.60;;;0.50;;
12792;SDS011;6460;42.684;23.260;2024-03-25T01:20:58;0.40;;;0.40;;
12792;SDS011;6460;42.684;23.260;2024-03-25T01:23:27;0.60;;;0.50;;
12792;SDS011;6460;42.684;23.260;2024-03-25T01:25:54;0.40;;;0.40;;
12792;SDS011;6460;42.684;23.260;2024-03-25T01:28:24;1.03;;;0.50;;
12792;SDS011;6460;42.684;23.260;2024-03-25T01:30:52;0.60;;;0.47;;
12792;SDS011;6460;42.684;23.260;2024-03-25T01:33:20;0.23;;;0.23;;
12792;SDS011;6460;42.684;23.260;2024-03-25T01:35:47;0.60;;;0.60;;
12792;SDS011;6460;42.684;23.260;2024-03-25T01:38:15;0.23;;;0.23;;
12792;SDS011;6460;42.684;23.260;2024-03-25T01:40:43;0.70;;;0.50;;
12792;SDS011;6460;42.684;23.260;2024-03-25T01:43:14;0.50;;;0.50;;
12792;SDS011;6460;42.684;23.260;2024-03-25T01:45:43;0.80;;;0.60;;
12792;SDS011;6460;42.684;23.260;2024-03-25T01:48:11;0.73;;;0.70;;
12792;SDS011;6460;42.684;23.260;2024-03-25T01:50:40;1.23;;;1.00;;
12792;SDS011;6460;42.684;23.260;2024-03-25T01:53:12;1.30;;;0.90;;
12792;SDS011;6460;42.684;23.260;2024-03-25T01:55:42;0.63;;;0.60;;
12792;SDS011;6460;42.684;23.260;2024-03-25T01:58:10;0.50;;;0.50;;
12792;SDS011;6460;42.684;23.260;2024-03-25T02:00:38;0.30;;;0.30;;
12792;SDS011;6460;42.684;23.260;2024-03-25T02:03:08;0.73;;;0.67;;
12792;SDS011;6460;42.684;23.260;2024-03-25T02:05:34;0.63;;;0.60;;
12792;SDS011;6460;42.684;23.260;2024-03-25T02:08:03;0.90;;;0.60;;
12792;SDS011;6460;42.684;23.260;2024-03-25T02:10:32;0.50;;;0.40;;
12792;SDS011;6460;42.684;23.260;2024-03-25T02:20:47;0.60;;;0.30;;
12792;SDS011;6460;42.684;23.260;2024-03-25T02:23:16;0.57;;;0.30;;
12792;SDS011;6460;42.684;23.260;2024-03-25T02:25:43;0.40;;;0.40;;
12792;SDS011;6460;42.684;23.260;2024-03-25T02:28:19;0.57;;;0.50;;
12792;SDS011;6460;42.684;23.260;2024-03-25T02:30:49;0.47;;;0.40;;
12792;SDS011;6460;42.684;23.260;2024-03-25T02:33:18;0.40;;;0.40;;
12792;SDS011;6460;42.684;23.260;2024-03-25T02:35:46;1.03;;;0.90;;
12792;SDS011;6460;42.684;23.260;2024-03-25T02:38:14;0.50;;;0.47;;
12792;SDS011;6460;42.684;23.260;2024-03-25T02:40:44;0.50;;;0.50;;
12792;SDS011;6460;42.684;23.260;2024-03-25T02:43:13;0.50;;;0.50;;
12792;SDS011;6460;42.684;23.260;2024-03-25T02:45:46;0.50;;;0.50;;
12792;SDS011;6460;42.684;23.260;2024-03-25T02:48:15;0.83;;;0.43;;
12792;SDS011;6460;42.684;23.260;2024-03-25T02:50:41;0.70;;;0.40;;
12792;SDS011;6460;42.684;23.260;2024-03-25T02:53:09;0.33;;;0.33;;
12792;SDS011;6460;42.684;23.260;2024-03-25T02:55:36;0.77;;;0.60;;
12792;SDS011;6460;42.684;23.260;2024-03-25T02:58:03;0.57;;;0.57;;
12792;SDS011;6460;42.684;23.260;2024-03-25T03:00:32;0.50;;;0.50;;
12792;SDS011;6460;42.684;23.260;2024-03-25T03:10:39;0.87;;;0.70;;
12792;SDS011;6460;42.684;23.260;2024-03-25T03:20:54;0.60;;;0.50;;
12792;SDS011;6460;42.684;23.260;2024-03-25T03:23:23;0.60;;;0.60;;
12792;SDS011;6460;42.684;23.260;2024-03-25T03:31:02;0.83;;;0.83;;
12792;SDS011;6460;42.684;23.260;2024-03-25T03:33:30;1.33;;;0.77;;
12792;SDS011;6460;42.684;23.260;2024-03-25T03:35:58;1.10;;;0.80;;
12792;SDS011;6460;42.684;23.260;2024-03-25T03:38:26;1.20;;;1.10;;
12792;SDS011;6460;42.684;23.260;2024-03-25T03:40:57;1.47;;;1.23;;
12792;SDS011;6460;42.684;23.260;2024-03-25T03:43:33;2.63;;;1.60;;
12792;SDS011;6460;42.684;23.260;2024-03-25T03:58:59;1.87;;;1.60;;
12792;SDS011;6460;42.684;23.260;2024-03-25T04:01:28;2.00;;;1.67;;
12792;SDS011;6460;42.684;23.260;2024-03-25T04:04:22;2.07;;;1.60;;
12792;SDS011;6460;42.684;23.260;2024-03-25T04:07:05;1.93;;;1.53;;
12792;SDS011;6460;42.684;23.260;2024-03-25T05:46:13;8.53;;;6.23;;
12792;SDS011;6460;42.684;23.260;2024-03-25T05:52:00;8.07;;;6.63;;
12792;SDS011;6460;42.684;23.260;2024-03-25T05:54:27;7.77;;;6.27;;
12792;SDS011;6460;42.684;23.260;2024-03-25T06:27:43;9.93;;;6.80;;
12792;SDS011;6460;42.684;23.260;2024-03-25T06:40:22;9.40;;;6.93;;
12792;SDS011;6460;42.684;23.260;2024-03-25T06:42:50;8.73;;;5.50;;
12792;SDS011;6460;42.684;23.260;2024-03-25T06:45:17;10.60;;;7.17;;
12792;SDS011;6460;42.684;23.260;2024-03-25T07:30:33;8.20;;;6.77;;
12792;SDS011;6460;42.684;23.260;2024-03-25T07:33:15;8.00;;;6.80;;
12792;SDS011;6460;42.684;23.260;2024-03-25T07:35:44;9.43;;;6.63;;
12792;SDS011;6460;42.684;23.260;2024-03-25T07:44:33;9.60;;;7.03;;
12792;SDS011;6460;42.684;23.260;2024-03-25T07:55:08;12.00;;;9.03;;
12792;SDS011;6460;42.684;23.260;2024-03-25T07:57:37;10.50;;;6.20;;
12792;SDS011;6460;42.684;23.260;2024-03-25T08:00:04;8.67;;;6.53;;
12792;SDS011;6460;42.684;23.260;2024-03-25T08:02:37;8.43;;;6.10;;
12792;SDS011;6460;42.684;23.260;2024-03-25T08:05:17;8.73;;;5.77;;
12792;SDS011;6460;42.684;23.260;2024-03-25T08:14:25;6.60;;;5.67;;
12792;SDS011;6460;42.684;23.260;2024-03-25T08:27:36;9.07;;;6.10;;
12792;SDS011;6460;42.684;23.260;2024-03-25T08:43:36;7.43;;;5.57;;
12792;SDS011;6460;42.684;23.260;2024-03-25T08:46:20;7.07;;;5.17;;
12792;SDS011;6460;42.684;23.260;2024-03-25T08:48:49;6.90;;;5.57;;
12792;SDS011;6460;42.684;23.260;2024-03-25T08:54:58;8.03;;;6.17;;
12792;SDS011;6460;42.684;23.260;2024-03-25T08:57:28;5.37;;;4.40;;
12792;SDS011;6460;42.684;23.260;2024-03-25T09:02:59;8.23;;;6.10;;
12792;SDS011;6460;42.684;23.260;2024-03-25T09:08:16;5.83;;;5.00;;
12792;SDS011;6460;42.684;23.260;2024-03-25T09:10:46;6.63;;;5.37;;
12792;SDS011;6460;42.684;23.260;2024-03-25T09:17:28;7.03;;;5.77;;
12792;SDS011;6460;42.684;23.260;2024-03-25T09:20:26;8.23;;;5.63;;
12792;SDS011;6460;42.684;23.260;2024-03-25T09:22:58;7.33;;;4.77;;
12792;SDS011;6460;42.684;23.260;2024-03-25T09:26:02;6.50;;;5.63;;
12792;SDS011;6460;42.684;23.260;2024-03-25T09:34:32;6.53;;;5.27;;
12792;SDS011;6460;42.684;23.260;2024-03-25T09:40:19;6.47;;;4.90;;
12792;SDS011;6460;42.684;23.260;2024-03-25T09:42:48;7.40;;;5.17;;
12792;SDS011;6460;42.684;23.260;2024-03-25T09:45:20;6.47;;;5.30;;
12792;SDS011;6460;42.684;23.260;2024-03-25T09:47:57;7.27;;;5.50;;
12792;SDS011;6460;42.684;23.260;2024-03-25T09:50:45;6.33;;;4.73;;
12792;SDS011;6460;42.684;23.260;2024-03-25T09:57:07;7.57;;;5.23;;
12792;SDS011;6460;42.684;23.260;2024-03-25T09:59:35;7.00;;;5.00;;
12792;SDS011;6460;42.684;23.260;2024-03-25T10:10:19;4.47;;;3.93;;
12792;SDS011;6460;42.684;23.260;2024-03-25T10:13:09;5.47;;;4.10;;
12792;SDS011;6460;42.684;23.260;2024-03-25T10:16:13;5.10;;;4.60;;
12792;SDS011;6460;42.684;23.260;2024-03-25T10:18:53;5.07;;;4.30;;
12792;SDS011;6460;42.684;23.260;2024-03-25T10:21:28;4.30;;;3.90;;
12792;SDS011;6460;42.684;23.260;2024-03-25T10:23:58;4.30;;;3.90;;
12792;SDS011;6460;42.684;23.260;2024-03-25T10:39:46;3.30;;;3.00;;
12792;SDS011;6460;42.684;23.260;2024-03-25T10:42:25;6.07;;;3.53;;
12792;SDS011;6460;42.684;23.260;2024-03-25T10:50:14;3.93;;;3.57;;
12792;SDS011;6460;42.684;23.260;2024-03-25T10:52:44;7.87;;;6.20;;
12792;SDS011;6460;42.684;23.260;2024-03-25T10:55:18;3.80;;;3.23;;
12792;SDS011;6460;42.684;23.260;2024-03-25T10:57:58;4.10;;;3.43;;
12792;SDS011;6460;42.684;23.260;2024-03-25T11:01:22;3.80;;;3.50;;
12792;SDS011;6460;42.684;23.260;2024-03-25T11:04:27;4.37;;;3.47;;
12792;SDS011;6460;42.684;23.260;2024-03-25T11:07:06;2.80;;;2.40;;
12792;SDS011;6460;42.684;23.260;2024-03-25T11:23:11;3.23;;;2.93;;
12792;SDS011;6460;42.684;23.260;2024-03-25T11:25:42;4.43;;;3.40;;
12792;SDS011;6460;42.684;23.260;2024-03-25T11:28:43;4.03;;;3.40;;
12792;SDS011;6460;42.684;23.260;2024-03-25T11:31:13;5.20;;;3.20;;
12792;SDS011;6460;42.684;23.260;2024-03-25T11:33:44;3.80;;;2.87;;
12792;SDS011;6460;42.684;23.260;2024-03-25T11:36:12;2.67;;;2.40;;
12792;SDS011;6460;42.684;23.260;2024-03-25T11:45:20;4.47;;;3.07;;
12792;SDS011;6460;42.684;23.260;2024-03-25T11:47:48;3.87;;;3.47;;
12792;SDS011;6460;42.684;23.260;2024-03-25T11:50:16;4.13;;;3.27;;
12792;SDS011;6460;42.684;23.260;2024-03-25T12:14:06;4.20;;;2.67;;
12792;SDS011;6460;42.684;23.260;2024-03-25T12:21:21;3.27;;;2.77;;
12792;SDS011;6460;42.684;23.260;2024-03-25T12:23:50;3.03;;;2.60;;
12792;SDS011;6460;42.684;23.260;2024-03-25T12:26:18;6.00;;;2.23;;
12792;SDS011;6460;42.684;23.260;2024-03-25T12:28:46;2.60;;;2.40;;
12792;SDS011;6460;42.684;23.260;2024-03-25T12:31:25;3.17;;;2.80;;
12792;SDS011;6460;42.684;23.260;2024-03-25T12:33:56;4.43;;;3.20;;
12792;SDS011;6460;42.684;23.260;2024-03-25T12:49:45;2.87;;;2.57;;
12792;SDS011;6460;42.684;23.260;2024-03-25T12:52:12;2.83;;;2.63;;
12792;SDS011;6460;42.684;23.260;2024-03-25T12:54:39;3.97;;;3.37;;
12792;SDS011;6460;42.684;23.260;2024-03-25T12:57:05;3.20;;;2.77;;
12792;SDS011;6460;42.684;23.260;2024-03-25T12:59:31;3.20;;;2.90;;
12792;SDS011;6460;42.684;23.260;2024-03-25T13:01:58;3.60;;;3.00;;
12792;SDS011;6460;42.684;23.260;2024-03-25T13:25:08;4.83;;;2.37;;
12792;SDS011;6460;42.684;23.260;2024-03-25T13:27:35;2.63;;;2.40;;
12792;SDS011;6460;42.684;23.260;2024-03-25T13:30:01;2.50;;;2.30;;
12792;SDS011;6460;42.684;23.260;2024-03-25T13:32:27;3.33;;;2.43;;
12792;SDS011;6460;42.684;23.260;2024-03-25T13:34:54;3.60;;;2.47;;
12792;SDS011;6460;42.684;23.260;2024-03-25T13:37:20;3.00;;;2.47;;
12792;SDS011;6460;42.684;23.260;2024-03-25T13:39:47;2.73;;;2.10;;
12792;SDS011;6460;42.684;23.260;2024-03-25T13:42:15;3.27;;;2.40;;
12792;SDS011;6460;42.684;23.260;2024-03-25T13:44:42;3.20;;;2.00;;
12792;SDS011;6460;42.684;23.260;2024-03-25T13:47:08;2.20;;;2.00;;
12792;SDS011;6460;42.684;23.260;2024-03-25T13:49:35;2.93;;;2.27;;
12792;SDS011;6460;42.684;23.260;2024-03-25T13:52:01;3.40;;;2.40;;
12792;SDS011;6460;42.684;23.260;2024-03-25T13:59:40;2.30;;;1.30;;
12792;SDS011;6460;42.684;23.260;2024-03-25T14:02:07;1.57;;;1.37;;
12792;SDS011;6460;42.684;23.260;2024-03-25T14:04:33;2.07;;;1.40;;
12792;SDS011;6460;42.684;23.260;2024-03-25T14:07:03;1.33;;;1.23;;
12792;SDS011;6460;42.684;23.260;2024-03-25T14:09:29;1.47;;;1.10;;
12792;SDS011;6460;42.684;23.260;2024-03-25T14:11:56;1.73;;;1.60;;
12792;SDS011;6460;42.684;23.260;2024-03-25T14:50:36;2.17;;;1.70;;
12792;SDS011;6460;42.684;23.260;2024-03-25T14:53:03;2.30;;;1.63;;
12792;SDS011;6460;42.684;23.260;2024-03-25T14:55:29;1.67;;;1.50;;
12792;SDS011;6460;42.684;23.260;2024-03-25T14:57:56;2.47;;;1.60;;
12792;SDS011;6460;42.684;23.260;2024-03-25T15:00:23;1.73;;;1.50;;
12792;SDS011;6460;42.684;23.260;2024-03-25T15:02:49;1.93;;;1.60;;
12792;SDS011;6460;42.684;23.260;2024-03-25T15:05:16;2.13;;;1.70;;
12792;SDS011;6460;42.684;23.260;2024-03-25T15:07:45;2.13;;;1.93;;
12792;SDS011;6460;42.684;23.260;2024-03-25T15:10:11;3.13;;;2.17;;
12792;SDS011;6460;42.684;23.260;2024-03-25T15:12:38;2.30;;;1.90;;
12792;SDS011;6460;42.684;23.260;2024-03-25T15:15:05;3.10;;;2.07;;
12792;SDS011;6460;42.684;23.260;2024-03-25T15:17:32;2.20;;;1.97;;
12792;SDS011;6460;42.684;23.260;2024-03-25T15:25:06;2.50;;;2.30;;
12792;SDS011;6460;42.684;23.260;2024-03-25T15:27:41;3.17;;;2.40;;
12792;SDS011;6460;42.684;23.260;2024-03-25T15:30:11;3.00;;;2.27;;
12792;SDS011;6460;42.684;23.260;2024-03-25T15:35:13;2.23;;;1.80;;
12792;SDS011;6460;42.684;23.260;2024-03-25T15:37:39;2.17;;;1.90;;
12792;SDS011;6460;42.684;23.260;2024-03-25T15:40:13;2.30;;;2.10;;
12792;SDS011;6460;42.684;23.260;2024-03-25T15:42:40;5.53;;;2.60;;
12792;SDS011;6460;42.684;23.260;2024-03-25T15:45:06;5.10;;;2.60;;
12792;SDS011;6460;42.684;23.260;2024-03-25T15:47:49;3.80;;;2.73;;
12792;SDS011;6460;42.684;23.260;2024-03-25T15:50:15;5.23;;;3.30;;
12792;SDS011;6460;42.684;23.260;2024-03-25T15:52:42;4.80;;;2.60;;
12792;SDS011;6460;42.684;23.260;2024-03-25T15:58:45;3.50;;;2.77;;
12792;SDS011;6460;42.684;23.260;2024-03-25T16:01:14;4.20;;;2.77;;
12792;SDS011;6460;42.684;23.260;2024-03-25T16:03:40;2.43;;;2.00;;
12792;SDS011;6460;42.684;23.260;2024-03-25T16:06:07;4.70;;;2.77;;
12792;SDS011;6460;42.684;23.260;2024-03-25T16:08:41;3.97;;;2.80;;
12792;SDS011;6460;42.684;23.260;2024-03-25T16:11:13;4.63;;;2.37;;
12792;SDS011;6460;42.684;23.260;2024-03-25T16:13:43;5.60;;;2.30;;
12792;SDS011;6460;42.684;23.260;2024-03-25T16:16:14;2.20;;;1.87;;
12792;SDS011;6460;42.684;23.260;2024-03-25T16:18:40;1.70;;;1.60;;
12792;SDS011;6460;42.684;23.260;2024-03-25T16:21:12;2.10;;;1.70;;
12792;SDS011;6460;42.684;23.260;2024-03-25T16:23:40;2.13;;;1.40;;
12792;SDS011;6460;42.684;23.260;2024-03-25T16:26:08;3.50;;;2.10;;
12792;SDS011;6460;42.684;23.260;2024-03-25T16:28:34;2.67;;;2.00;;
12792;SDS011;6460;42.684;23.260;2024-03-25T16:31:02;3.53;;;2.53;;
12792;SDS011;6460;42.684;23.260;2024-03-25T16:33:38;5.80;;;2.93;;
12792;SDS011;6460;42.684;23.260;2024-03-25T16:36:04;3.97;;;2.83;;
12792;SDS011;6460;42.684;23.260;2024-03-25T16:38:31;6.70;;;3.73;;
12792;SDS011;6460;42.684;23.260;2024-03-25T16:40:57;4.77;;;3.27;;
12792;SDS011;6460;42.684;23.260;2024-03-25T16:43:23;3.67;;;3.03;;
12792;SDS011;6460;42.684;23.260;2024-03-25T16:45:49;4.77;;;3.47;;
12792;SDS011;6460;42.684;23.260;2024-03-25T16:48:30;3.83;;;2.90;;
12792;SDS011;6460;42.684;23.260;2024-03-25T16:51:12;5.33;;;2.63;;
12792;SDS011;6460;42.684;23.260;2024-03-25T16:53:38;3.13;;;2.50;;
12792;SDS011;6460;42.684;23.260;2024-03-25T16:56:04;4.87;;;3.70;;
12792;SDS011;6460;42.684;23.260;2024-03-25T16:58:34;3.17;;;2.87;;
12792;SDS011;6460;42.684;23.260;2024-03-25T17:01:00;4.03;;;2.90;;
12792;SDS011;6460;42.684;23.260;2024-03-25T17:03:26;4.90;;;2.40;;
12792;SDS011;6460;42.684;23.260;2024-03-25T17:05:54;2.90;;;2.53;;
12792;SDS011;6460;42.684;23.260;2024-03-25T17:08:21;3.47;;;2.70;;
12792;SDS011;6460;42.684;23.260;2024-03-25T17:10:48;4.10;;;2.30;;
12792;SDS011;6460;42.684;23.260;2024-03-25T17:13:14;3.40;;;2.90;;
12792;SDS011;6460;42.684;23.260;2024-03-25T17:15:40;3.00;;;2.50;;
12792;SDS011;6460;42.684;23.260;2024-03-25T17:18:09;5.63;;;3.07;;
12792;SDS011;6460;42.684;23.260;2024-03-25T17:20:37;4.50;;;3.70;;
12792;SDS011;6460;42.684;23.260;2024-03-25T17:23:05;3.57;;;2.67;;
12792;SDS011;6460;42.684;23.260;2024-03-25T17:25:31;2.63;;;2.37;;
12792;SDS011;6460;42.684;23.260;2024-03-25T17:27:58;4.67;;;3.60;;
12792;SDS011;6460;42.684;23.260;2024-03-25T17:30:35;5.37;;;3.33;;
12792;SDS011;6460;42.684;23.260;2024-03-25T17:33:02;4.97;;;3.20;;
12792;SDS011;6460;42.684;23.260;2024-03-25T17:35:28;3.27;;;2.97;;
12792;SDS011;6460;42.684;23.260;2024-03-25T17:37:54;3.10;;;2.80;;
12792;SDS011;6460;42.684;23.260;2024-03-25T17:40:22;5.03;;;3.07;;
12792;SDS011;6460;42.684;23.260;2024-03-25T17:42:48;4.17;;;3.00;;
12792;SDS011;6460;42.684;23.260;2024-03-25T17:45:15;5.40;;;3.20;;
12792;SDS011;6460;42.684;23.260;2024-03-25T17:47:41;3.57;;;2.60;;
12792;SDS011;6460;42.684;23.260;2024-03-25T17:50:12;3.40;;;2.90;;
12792;SDS011;6460;42.684;23.260;2024-03-25T17:52:38;3.23;;;2.77;;
12792;SDS011;6460;42.684;23.260;2024-03-25T17:55:04;4.03;;;2.97;;
12792;SDS011;6460;42.684;23.260;2024-03-25T17:57:35;3.57;;;3.00;;
12792;SDS011;6460;42.684;23.260;2024-03-25T18:00:01;3.80;;;2.80;;
12792;SDS011;6460;42.684;23.260;2024-03-25T18:02:27;4.67;;;3.40;;
12792;SDS011;6460;42.684;23.260;2024-03-25T18:04:53;3.87;;;2.87;;
12792;SDS011;6460;42.684;23.260;2024-03-25T18:07:19;5.93;;;3.27;;
12792;SDS011;6460;42.684;23.260;2024-03-25T18:09:45;4.33;;;2.90;;
12792;SDS011;6460;42.684;23.260;2024-03-25T18:12:11;5.60;;;3.57;;
12792;SDS011;6460;42.684;23.260;2024-03-25T18:14:38;3.23;;;2.67;;
12792;SDS011;6460;42.684;23.260;2024-03-25T18:17:05;3.53;;;2.63;;
12792;SDS011;6460;42.684;23.260;2024-03-25T18:19:32;5.03;;;2.70;;
12792;SDS011;6460;42.684;23.260;2024-03-25T18:21:58;3.73;;;2.73;;
12792;SDS011;6460;42.684;23.260;2024-03-25T18:24:24;3.43;;;2.73;;
12792;SDS011;6460;42.684;23.260;2024-03-25T18:26:50;2.60;;;2.00;;
12792;SDS011;6460;42.684;23.260;2024-03-25T18:29:19;3.67;;;3.00;;
12792;SDS011;6460;42.684;23.260;2024-03-25T18:31:47;3.67;;;2.30;;
12792;SDS011;6460;42.684;23.260;2024-03-25T18:34:14;4.00;;;2.93;;
12792;SDS011;6460;42.684;23.260;2024-03-25T18:36:40;2.20;;;1.97;;
12792;SDS011;6460;42.684;23.260;2024-03-25T18:39:06;2.83;;;2.20;;
12792;SDS011;6460;42.684;23.260;2024-03-25T18:41:32;2.83;;;2.20;;
12792;SDS011;6460;42.684;23.260;2024-03-25T18:43:58;5.40;;;2.40;;
12792;SDS011;6460;42.684;23.260;2024-03-25T18:46:24;3.10;;;2.30;;
12792;SDS011;6460;42.684;23.260;2024-03-25T18:48:52;3.63;;;2.33;;
12792;SDS011;6460;42.684;23.260;2024-03-25T18:51:18;2.47;;;2.23;;
12792;SDS011;6460;42.684;23.260;2024-03-25T18:53:44;3.27;;;2.43;;
12792;SDS011;6460;42.684;23.260;2024-03-25T18:56:11;5.97;;;2.80;;
12792;SDS011;6460;42.684;23.260;2024-03-25T18:58:39;3.37;;;2.40;;
12792;SDS011;6460;42.684;23.260;2024-03-25T19:01:05;2.73;;;2.17;;
12792;SDS011;6460;42.684;23.260;2024-03-25T19:03:32;3.47;;;2.33;;
12792;SDS011;6460;42.684;23.260;2024-03-25T19:06:02;2.33;;;2.10;;
12792;SDS011;6460;42.684;23.260;2024-03-25T19:08:28;3.80;;;2.13;;
12792;SDS011;6460;42.684;23.260;2024-03-25T19:10:55;3.90;;;2.63;;
12792;SDS011;6460;42.684;23.260;2024-03-25T19:13:24;5.23;;;2.70;;
12792;SDS011;6460;42.684;23.260;2024-03-25T19:16:15;4.10;;;3.30;;
12792;SDS011;6460;42.684;23.260;2024-03-25T19:18:44;4.00;;;2.30;;
12792;SDS011;6460;42.684;23.260;2024-03-25T19:21:12;3.73;;;1.90;;
12792;SDS011;6460;42.684;23.260;2024-03-25T19:23:38;4.20;;;2.23;;
12792;SDS011;6460;42.684;23.260;2024-03-25T19:26:04;3.87;;;2.50;;
12792;SDS011;6460;42.684;23.260;2024-03-25T19:28:30;3.17;;;2.43;;
12792;SDS011;6460;42.684;23.260;2024-03-25T19:30:57;4.50;;;2.30;;
12792;SDS011;6460;42.684;23.260;2024-03-25T19:33:23;3.63;;;2.20;;
12792;SDS011;6460;42.684;23.260;2024-03-25T19:35:49;3.50;;;2.33;;
12792;SDS011;6460;42.684;23.260;2024-03-25T19:38:17;2.93;;;2.20;;
12792;SDS011;6460;42.684;23.260;2024-03-25T19:40:43;3.50;;;2.47;;
12792;SDS011;6460;42.684;23.260;2024-03-25T19:43:09;3.53;;;2.33;;
12792;SDS011;6460;42.684;23.260;2024-03-25T19:45:35;3.13;;;2.30;;
12792;SDS011;6460;42.684;23.260;2024-03-25T19:48:02;6.87;;;2.80;;
12792;SDS011;6460;42.684;23.260;2024-03-25T19:50:29;3.27;;;2.50;;
12792;SDS011;6460;42.684;23.260;2024-03-25T19:52:55;2.87;;;1.90;;
12792;SDS011;6460;42.684;23.260;2024-03-25T19:55:23;3.87;;;2.30;;
12792;SDS011;6460;42.684;23.260;2024-03-25T19:57:49;3.93;;;2.00;;
12792;SDS011;6460;42.684;23.260;2024-03-25T20:00:15;4.07;;;2.00;;
12792;SDS011;6460;42.684;23.260;2024-03-25T20:02:42;3.33;;;2.40;;
12792;SDS011;6460;42.684;23.260;2024-03-25T20:05:08;3.10;;;2.20;;
12792;SDS011;6460;42.684;23.260;2024-03-25T20:07:35;2.93;;;2.10;;
12792;SDS011;6460;42.684;23.260;2024-03-25T20:10:01;2.27;;;2.00;;
12792;SDS011;6460;42.684;23.260;2024-03-25T20:12:29;2.90;;;2.20;;
12792;SDS011;6460;42.684;23.260;2024-03-25T20:14:55;3.77;;;2.13;;
12792;SDS011;6460;42.684;23.260;2024-03-25T20:17:21;4.00;;;2.40;;
12792;SDS011;6460;42.684;23.260;2024-03-25T20:19:47;2.83;;;2.47;;
12792;SDS011;6460;42.684;23.260;2024-03-25T20:22:14;3.07;;;2.47;;
12792;SDS011;6460;42.684;23.260;2024-03-25T20:24:40;5.57;;;2.90;;
12792;SDS011;6460;42.684;23.260;2024-03-25T20:27:06;3.03;;;2.43;;
12792;SDS011;6460;42.684;23.260;2024-03-25T20:29:34;3.77;;;2.30;;
12792;SDS011;6460;42.684;23.260;2024-03-25T20:32:01;3.07;;;2.20;;
12792;SDS011;6460;42.684;23.260;2024-03-25T20:34:27;2.93;;;2.30;;
12792;SDS011;6460;42.684;23.260;2024-03-25T20:36:54;3.47;;;2.20;;
12792;SDS011;6460;42.684;23.260;2024-03-25T20:39:20;3.70;;;2.90;;
12792;SDS011;6460;42.684;23.260;2024-03-25T20:41:46;4.13;;;2.47;;
12792;SDS011;6460;42.684;23.260;2024-03-25T20:44:14;2.93;;;2.10;;
12792;SDS011;6460;42.684;23.260;2024-03-25T21:02:14;2.10;;;1.90;;
12792;SDS011;6460;42.684;23.260;2024-03-25T21:04:40;2.33;;;2.03;;
